Skye — WDG4178 — position and weather

sailwx.info

Track history (hours):
 
Tides and Currents Weather Stations Pressure Air Temp Water Temp Dewpoint Dewpoint Depression Visibility Wind Speed Wind Dir Waves Ship Positions

Skye

More information available from US FCC via Universal Licensing System and Coast Guard Vessel Documentation Center.

Last reported at 2014-Jul-24 02:24 UTC. Time now 2014-Jul-29 16:52 UTC.
Position N 41°10' E 002°03'.

Length 13 m.

Type: Sailing vessel. MMSI: 367533820.

Date/timePositionNaut miles runAvg speedWind from/ knotsBaromVisibWave heightAir tempDewpointWater temp
2014-Jul-24 02:24N 41°10' E 002°03'6 7.2
2014-Jul-24 01:31N 41°04' E 001°59'7 6.9
2014-Jul-24 00:31N 40°58' E 001°54'7 6.6
2014-Jul-23 23:31N 40°52' E 001°50'7 6.8
2014-Jul-23 22:32N 40°47' E 001°46'7 6.8
2014-Jul-23 21:32N 40°41' E 001°41'7 6.8
2014-Jul-23 20:33N 40°35' E 001°37'7 6.9
2014-Jul-23 19:32N 40°29' E 001°33'7 7.3
2014-Jul-23 18:32N 40°22' E 001°28'7 7.4
2014-Jul-23 17:32N 40°16' E 001°24'7 7.3
2014-Jul-23 16:33N 40°09' E 001°20'7 7.2
2014-Jul-23 15:32N 40°03' E 001°15'8 7.3
2014-Jul-23 14:30N 39°56' E 001°11'88 7.3
2014-Jul-23 02:32N 38°39' E 000°16'36 7.1
2014-Jul-22 21:24N 38°09' W 000°09'35 7.2
2014-Jul-22 16:33N 37°40' W 000°33'  
2014-Jul-14 22:16N 37°43' W 024°11'5 6.6
2014-Jul-14 21:33N 37°43' W 024°17'7 6.8
2014-Jul-14 20:33N 37°43' W 024°25'7 7.0
2014-Jul-14 19:33N 37°43' W 024°34'7 6.7
2014-Jul-14 18:33N 37°43' W 024°42'6 6.4
2014-Jul-14 17:33N 37°43' W 024°51'6 6.4
2014-Jul-14 16:33N 37°43' W 024°59'6 6.5
2014-Jul-14 15:33N 37°42' W 025°07'6 6.2
2014-Jul-14 14:33N 37°42' W 025°15'6 5.9
2014-Jul-14 13:33N 37°42' W 025°22'6 6.0
2014-Jul-14 12:33N 37°42' W 025°30'5 5.4
2014-Jul-14 11:33N 37°43' W 025°36'3 2.9
2014-Jul-14 10:32N 37°44' W 025°40'0 0.0
2014-Jul-14 09:32N 37°44' W 025°40'0 0.0
2014-Jul-14 04:09N 37°44' W 025°40'1 2.3
2014-Jul-14 03:34N 37°44' W 025°38'7 6.9
2014-Jul-14 02:33N 37°42' W 025°30'  
Track history (hours):
 
Tides and Currents Weather Stations Pressure Air Temp Water Temp Dewpoint Dewpoint Depression Visibility Wind Speed Wind Dir Waves Ship Positions

Skye

More information available from US FCC via Universal Licensing System and Coast Guard Vessel Documentation Center.

Last reported at 2014-Jul-24 02:24 UTC. Time now 2014-Jul-29 16:52 UTC.
Position N 41°10' E 002°03'.

Length 13 m.

Type: Sailing vessel. MMSI: 367533820.

Date/timePositionNaut miles runAvg speedWind from/ knotsBaromVisibWave heightAir tempDewpointWater temp
2014-Jul-24 02:24N 41°10' E 002°03'6 7.2
2014-Jul-24 01:31N 41°04' E 001°59'7 6.9
2014-Jul-24 00:31N 40°58' E 001°54'7 6.6
2014-Jul-23 23:31N 40°52' E 001°50'7 6.8
2014-Jul-23 22:32N 40°47' E 001°46'7 6.8
2014-Jul-23 21:32N 40°41' E 001°41'7 6.8
2014-Jul-23 20:33N 40°35' E 001°37'7 6.9
2014-Jul-23 19:32N 40°29' E 001°33'7 7.3
2014-Jul-23 18:32N 40°22' E 001°28'7 7.4
2014-Jul-23 17:32N 40°16' E 001°24'7 7.3
2014-Jul-23 16:33N 40°09' E 001°20'7 7.2
2014-Jul-23 15:32N 40°03' E 001°15'8 7.3
2014-Jul-23 14:30N 39°56' E 001°11'88 7.3
2014-Jul-23 02:32N 38°39' E 000°16'36 7.1
2014-Jul-22 21:24N 38°09' W 000°09'35 7.2
2014-Jul-22 16:33N 37°40' W 000°33'  
2014-Jul-14 22:16N 37°43' W 024°11'5 6.6
2014-Jul-14 21:33N 37°43' W 024°17'7 6.8
2014-Jul-14 20:33N 37°43' W 024°25'7 7.0
2014-Jul-14 19:33N 37°43' W 024°34'7 6.7
2014-Jul-14 18:33N 37°43' W 024°42'6 6.4
2014-Jul-14 17:33N 37°43' W 024°51'6 6.4
2014-Jul-14 16:33N 37°43' W 024°59'6 6.5
2014-Jul-14 15:33N 37°42' W 025°07'6 6.2
2014-Jul-14 14:33N 37°42' W 025°15'6 5.9
2014-Jul-14 13:33N 37°42' W 025°22'6 6.0
2014-Jul-14 12:33N 37°42' W 025°30'5 5.4
2014-Jul-14 11:33N 37°43' W 025°36'3 2.9
2014-Jul-14 10:32N 37°44' W 025°40'0 0.0
2014-Jul-14 09:32N 37°44' W 025°40'0 0.0
2014-Jul-14 04:09N 37°44' W 025°40'1 2.3
2014-Jul-14 03:34N 37°44' W 025°38'7 6.9
2014-Jul-14 02:33N 37°42' W 025°30'  

Dump ship's entire track history